createdAt,value
2023-02-27T00:00:15.198Z,97537.97
2023-02-27T00:02:47.741Z,97541.13
2023-02-27T00:05:15.669Z,97548.56
2023-02-27T00:07:42.894Z,97539.00
2023-02-27T00:10:11.130Z,97547.00
2023-02-27T00:12:39.121Z,97551.16
2023-02-27T00:15:08.655Z,97548.56
2023-02-27T00:17:35.846Z,97547.56
2023-02-27T00:20:03.362Z,97529.63
2023-02-27T00:22:30.271Z,97524.50
2023-02-27T00:24:57.207Z,97505.31
2023-02-27T00:27:24.133Z,97504.75
2023-02-27T00:29:51.161Z,97518.16
2023-02-27T00:32:19.205Z,97536.91
2023-02-27T00:34:47.503Z,97541.75
2023-02-27T00:37:14.470Z,97546.03
2023-02-27T00:39:41.477Z,97565.94
2023-02-27T00:42:08.527Z,97565.22
2023-02-27T00:44:35.475Z,97561.06
2023-02-27T00:47:02.406Z,97568.34
2023-02-27T00:49:29.385Z,97576.69
2023-02-27T00:51:56.368Z,97575.97
2023-02-27T00:54:24.140Z,97573.91
2023-02-27T00:56:51.099Z,97579.69
2023-02-27T00:59:18.129Z,97572.19
2023-02-27T01:01:45.417Z,97576.38
2023-02-27T01:04:12.509Z,97566.69
2023-02-27T01:06:39.516Z,97575.16
2023-02-27T01:09:07.086Z,97579.84
2023-02-27T01:11:34.080Z,97589.63
2023-02-27T01:14:01.731Z,97589.53
2023-02-27T01:16:29.453Z,97601.16
2023-02-27T01:18:56.384Z,97603.72
2023-02-27T01:21:24.650Z,97601.66
2023-02-27T01:23:51.991Z,97616.91
2023-02-27T01:26:19.757Z,97606.75
2023-02-27T01:28:46.738Z,97603.91
2023-02-27T01:31:13.947Z,97607.00
2023-02-27T01:33:40.937Z,97620.84
2023-02-27T01:36:08.301Z,97620.22
2023-02-27T01:38:35.201Z,97619.22
2023-02-27T01:41:02.281Z,97624.44
2023-02-27T01:43:29.248Z,97629.59
2023-02-27T01:45:56.163Z,97624.94
2023-02-27T01:48:29.025Z,97635.41
2023-02-27T01:51:11.942Z,97629.47
2023-02-27T01:53:41.810Z,97636.75
2023-02-27T01:56:18.148Z,97633.22
2023-02-27T01:58:47.808Z,97634.00
2023-02-27T02:01:15.083Z,97633.72
2023-02-27T02:04:08.277Z,97626.63
2023-02-27T02:06:40.538Z,97630.81
2023-02-27T02:09:09.962Z,97634.28
2023-02-27T02:11:38.053Z,97629.94
2023-02-27T02:14:05.836Z,97629.78
2023-02-27T02:16:47.980Z,97630.91
2023-02-27T02:19:33.059Z,97633.41
2023-02-27T02:22:21.707Z,97638.22
2023-02-27T02:25:25.968Z,97641.69
2023-02-27T02:28:30.164Z,97638.03
2023-02-27T02:31:35.241Z,97645.25
2023-02-27T02:34:40.124Z,97631.53
2023-02-27T02:37:32.194Z,97633.66
2023-02-27T02:40:19.198Z,97640.13
2023-02-27T02:43:08.786Z,97651.75
2023-02-27T02:46:13.490Z,97655.59
2023-02-27T02:49:25.703Z,97644.47
2023-02-27T02:51:56.814Z,97647.09
2023-02-27T02:54:56.000Z,97652.38
2023-02-27T02:58:10.442Z,97652.50
2023-02-27T03:00:42.423Z,97644.84
2023-02-27T03:03:22.762Z,97647.72
2023-02-27T03:05:58.379Z,97654.00
2023-02-27T03:08:34.633Z,97651.00
2023-02-27T03:11:06.402Z,97641.13
2023-02-27T03:13:42.364Z,97647.66
2023-02-27T03:16:41.631Z,97653.88
2023-02-27T03:19:14.055Z,97657.22
2023-02-27T03:21:53.936Z,97657.91
2023-02-27T03:24:31.681Z,97668.41
2023-02-27T03:27:03.003Z,97675.34
2023-02-27T03:29:47.780Z,97678.97
2023-02-27T03:32:42.765Z,97676.00
2023-02-27T03:35:12.625Z,97670.88
2023-02-27T03:37:51.393Z,97672.38
2023-02-27T03:40:33.931Z,97670.31
2023-02-27T03:43:16.231Z,97668.44
2023-02-27T03:45:54.324Z,97667.59
2023-02-27T03:48:21.640Z,97656.84
2023-02-27T03:50:49.015Z,97659.06
2023-02-27T03:53:46.384Z,97662.63
2023-02-27T03:56:16.588Z,97671.31
2023-02-27T03:58:44.103Z,97663.28
2023-02-27T04:01:12.068Z,97650.53
2023-02-27T04:03:48.182Z,97637.59
2023-02-27T04:06:39.797Z,97638.38
2023-02-27T04:09:21.910Z,97645.03
2023-02-27T04:12:09.051Z,97650.13
2023-02-27T04:14:45.071Z,97647.88
2023-02-27T04:17:17.015Z,97651.06
2023-02-27T04:20:05.815Z,97657.25
2023-02-27T04:22:41.877Z,97657.16
2023-02-27T04:25:35.113Z,97645.22
2023-02-27T04:28:25.666Z,97643.78
2023-02-27T04:31:16.268Z,97644.41
2023-02-27T04:33:57.430Z,97632.41
2023-02-27T04:36:27.381Z,97631.28
2023-02-27T04:39:04.987Z,97632.22
2023-02-27T04:41:54.266Z,97635.09
2023-02-27T04:44:22.976Z,97635.13
2023-02-27T04:46:53.435Z,97639.56
2023-02-27T04:49:29.438Z,97642.50
2023-02-27T04:52:22.994Z,97654.38
2023-02-27T04:54:53.321Z,97655.91
2023-02-27T04:57:27.736Z,97663.50
2023-02-27T04:59:57.147Z,97661.69
2023-02-27T05:02:32.931Z,97662.34
2023-02-27T05:05:06.189Z,97656.69
2023-02-27T05:07:43.185Z,97671.06
2023-02-27T05:10:18.897Z,97667.00
2023-02-27T05:12:51.878Z,97660.72
2023-02-27T05:15:28.494Z,97649.19
2023-02-27T05:17:55.280Z,97667.97
2023-02-27T05:20:29.876Z,97670.59
2023-02-27T05:23:09.437Z,97685.59
2023-02-27T05:25:54.117Z,97698.28
2023-02-27T05:28:33.965Z,97698.13
2023-02-27T05:31:12.328Z,97692.16
2023-02-27T05:34:03.193Z,97699.41
2023-02-27T05:36:56.518Z,97701.31
2023-02-27T05:39:27.241Z,97704.78
2023-02-27T05:42:02.207Z,97686.00
2023-02-27T05:44:40.259Z,97686.94
2023-02-27T05:47:14.846Z,97701.16
2023-02-27T05:49:58.144Z,97728.47
2023-02-27T05:52:27.974Z,97740.66
2023-02-27T05:55:11.658Z,97724.34
2023-02-27T05:57:49.529Z,97739.53
2023-02-27T06:00:24.604Z,97740.34
2023-02-27T06:02:51.800Z,97740.34
2023-02-27T06:05:20.084Z,97735.19
2023-02-27T06:07:47.374Z,97741.66
2023-02-27T06:10:16.852Z,97763.53
2023-02-27T06:12:43.806Z,97776.19
2023-02-27T06:15:11.845Z,97778.63
2023-02-27T06:17:39.312Z,97769.91
2023-02-27T06:20:08.068Z,97766.66
2023-02-27T06:22:35.596Z,97757.25
2023-02-27T06:25:02.563Z,97748.88
2023-02-27T06:27:29.574Z,97745.19
2023-02-27T06:29:57.693Z,97735.38
2023-02-27T06:32:25.915Z,97723.84
2023-02-27T06:34:53.530Z,97730.13
2023-02-27T06:37:21.922Z,97747.28
2023-02-27T06:39:48.902Z,97752.38
2023-02-27T06:42:16.655Z,97749.91
2023-02-27T06:44:43.818Z,97744.66
2023-02-27T06:47:10.883Z,97729.63
2023-02-27T06:49:37.880Z,97732.63
2023-02-27T06:52:04.814Z,97725.66
2023-02-27T06:54:31.807Z,97725.28
2023-02-27T06:56:58.657Z,97715.84
2023-02-27T06:59:25.768Z,97713.38
2023-02-27T07:01:53.968Z,97708.09
2023-02-27T07:04:21.123Z,97715.69
2023-02-27T07:07:33.070Z,97713.84
2023-02-27T07:09:36.313Z,97700.63
2023-02-27T07:12:04.826Z,97711.28
2023-02-27T07:14:32.690Z,97707.94
2023-02-27T07:17:03.443Z,97713.22
2023-02-27T07:19:31.874Z,97714.50
2023-02-27T07:21:58.908Z,97715.88
2023-02-27T07:24:25.970Z,97715.69
2023-02-27T07:26:53.786Z,97719.34
2023-02-27T07:29:21.155Z,97724.44
2023-02-27T07:31:48.370Z,97736.78
2023-02-27T07:34:16.006Z,97746.03
2023-02-27T07:36:43.531Z,97762.63
2023-02-27T07:39:12.720Z,97755.66
2023-02-27T07:41:40.034Z,97772.59
2023-02-27T07:44:08.680Z,97773.22
2023-02-27T07:46:36.034Z,97778.28
2023-02-27T07:49:03.198Z,97780.41
2023-02-27T07:51:30.217Z,97780.31
2023-02-27T07:53:59.858Z,97776.03
2023-02-27T07:56:28.281Z,97785.47
2023-02-27T07:58:55.292Z,97786.19
2023-02-27T08:01:22.384Z,97788.00
2023-02-27T08:03:49.370Z,97778.88
2023-02-27T08:06:16.259Z,97763.09
2023-02-27T08:08:43.161Z,97772.47
2023-02-27T08:11:10.861Z,97781.09
2023-02-27T08:16:24.844Z,97801.53
2023-02-27T08:18:51.793Z,97815.97
2023-02-27T08:21:19.045Z,97817.53
2023-02-27T08:23:45.968Z,97834.72
2023-02-27T08:26:12.901Z,97849.31
2023-02-27T08:28:39.936Z,97845.56
2023-02-27T08:31:07.423Z,97847.00
2023-02-27T08:33:34.860Z,97839.19
2023-02-27T08:36:02.076Z,97841.66
2023-02-27T08:38:29.116Z,97854.69
2023-02-27T08:40:56.148Z,97862.75
2023-02-27T08:43:23.791Z,97853.84
2023-02-27T08:45:51.222Z,97868.38
2023-02-27T08:48:18.652Z,97873.81
2023-02-27T08:50:46.613Z,97875.78
2023-02-27T08:53:14.114Z,97878.28
2023-02-27T08:55:41.253Z,97868.69
2023-02-27T08:58:09.181Z,97879.59
2023-02-27T09:00:36.160Z,97876.28
2023-02-27T09:03:03.181Z,97887.19
2023-02-27T09:05:30.213Z,97882.56
2023-02-27T09:07:57.095Z,97879.28
2023-02-27T09:10:24.210Z,97893.44
2023-02-27T09:12:51.192Z,97891.78
2023-02-27T09:15:18.243Z,97893.63
2023-02-27T09:17:45.432Z,97904.34
2023-02-27T09:20:13.004Z,97907.47
2023-02-27T09:22:39.961Z,97911.59
2023-02-27T09:25:07.152Z,97915.19
2023-02-27T09:27:35.409Z,97923.13
2023-02-27T09:30:02.466Z,97924.41
2023-02-27T09:32:29.605Z,97929.00
2023-02-27T09:34:56.606Z,97927.88
2023-02-27T09:37:25.132Z,97944.53
2023-02-27T09:39:52.157Z,97943.22
2023-02-27T09:42:23.511Z,97946.69
2023-02-27T10:17:30.972Z,97956.84
2023-02-27T10:20:01.711Z,97961.13
2023-02-27T10:22:33.529Z,97963.59
2023-02-27T10:25:18.080Z,97965.88
2023-02-27T10:27:50.728Z,97964.34
2023-02-27T10:30:29.249Z,97955.34
2023-02-27T10:33:07.541Z,97949.78
2023-02-27T10:35:40.669Z,97955.75
2023-02-27T10:38:19.659Z,97956.59
2023-02-27T10:40:48.191Z,97955.41
2023-02-27T10:43:19.363Z,97958.63
2023-02-27T10:45:46.783Z,97959.56
2023-02-27T10:48:14.946Z,97965.06
2023-02-27T10:50:45.019Z,97955.81
2023-02-27T10:53:38.138Z,97954.50
2023-02-27T10:56:08.485Z,97958.38
2023-02-27T10:58:37.244Z,97967.44
2023-02-27T11:01:10.737Z,97962.72
2023-02-27T11:03:43.322Z,97962.00
2023-02-27T11:06:26.106Z,97969.84
2023-02-27T11:09:21.120Z,97965.22
2023-02-27T11:11:48.578Z,97965.00
2023-02-27T11:14:29.508Z,97969.59
2023-02-27T11:16:59.339Z,97970.88
2023-02-27T11:19:32.052Z,97971.72
2023-02-27T11:22:20.693Z,97964.94
2023-02-27T11:24:48.277Z,97958.09
2023-02-27T11:27:29.164Z,97964.53
2023-02-27T11:29:58.309Z,97967.66
2023-02-27T11:32:29.975Z,97965.69
2023-02-27T11:34:57.002Z,97964.59
2023-02-27T11:37:33.034Z,97962.91
2023-02-27T11:40:12.978Z,97956.91
2023-02-27T11:42:49.237Z,97967.06
2023-02-27T11:46:05.136Z,97967.56
2023-02-27T11:48:42.539Z,97970.38
2023-02-27T11:51:20.482Z,97975.84
2023-02-27T11:54:05.592Z,97965.22
2023-02-27T11:56:43.814Z,97977.06
2023-02-27T11:59:10.840Z,97974.94
2023-02-27T12:01:42.397Z,97976.38
2023-02-27T12:04:15.977Z,97973.53
2023-02-27T12:07:01.464Z,97971.06
2023-02-27T12:09:50.253Z,97971.34
2023-02-27T12:12:30.874Z,97978.34
2023-02-27T12:15:21.395Z,97979.69
2023-02-27T12:17:55.302Z,97987.59
2023-02-27T12:20:40.062Z,97991.31
2023-02-27T12:23:18.903Z,97988.03
2023-02-27T12:25:55.775Z,97994.06
2023-02-27T12:28:25.369Z,97984.53
2023-02-27T12:31:36.807Z,97992.34
2023-02-27T12:34:26.206Z,98005.63
2023-02-27T12:36:54.474Z,98003.66
2023-02-27T12:39:25.698Z,98007.38
2023-02-27T12:41:55.535Z,98005.28
2023-02-27T12:44:52.880Z,98021.31
2023-02-27T12:47:26.101Z,98018.84
2023-02-27T12:50:11.551Z,98020.69
2023-02-27T12:53:02.895Z,98024.97
2023-02-27T12:55:45.269Z,98023.25
2023-02-27T12:58:25.138Z,98021.56
2023-02-27T13:00:55.776Z,98016.13
2023-02-27T13:03:26.518Z,98031.91
2023-02-27T13:06:30.256Z,98034.88
2023-02-27T13:09:13.142Z,98034.63
2023-02-27T13:12:21.331Z,98026.69
2023-02-27T13:14:54.999Z,98033.97
2023-02-27T13:17:21.971Z,98043.22
2023-02-27T13:19:53.660Z,98049.88
2023-02-27T13:22:44.000Z,98049.91
2023-02-27T13:25:15.711Z,98044.44
2023-02-27T13:27:47.650Z,98043.47
2023-02-27T13:30:29.676Z,98048.75
2023-02-27T13:33:35.360Z,98045.28
2023-02-27T13:36:08.002Z,98053.06
2023-02-27T13:38:45.276Z,98061.81
2023-02-27T13:41:21.376Z,98065.44
2023-02-27T13:43:53.599Z,98060.31
2023-02-27T13:46:23.338Z,98067.75
2023-02-27T13:48:53.880Z,98064.13
2023-02-27T13:51:35.863Z,98069.41
2023-02-27T13:54:21.874Z,98072.69
2023-02-27T13:56:54.738Z,98081.13
2023-02-27T13:59:21.746Z,98095.16
2023-02-27T14:02:11.329Z,98100.13
2023-02-27T14:04:53.660Z,98109.19
2023-02-27T14:07:26.792Z,98104.63
2023-02-27T14:10:09.862Z,98087.13
2023-02-27T14:12:46.493Z,98098.16
2023-02-27T14:15:22.993Z,98108.03
2023-02-27T14:17:56.829Z,98117.84
2023-02-27T14:20:27.662Z,98120.88
2023-02-27T14:23:16.316Z,98136.59
2023-02-27T14:25:49.303Z,98122.03
2023-02-27T14:28:34.478Z,98118.00
2023-02-27T14:31:20.755Z,98131.19
2023-02-27T14:33:54.190Z,98144.34
2023-02-27T14:36:24.984Z,98146.63
2023-02-27T14:38:56.290Z,98140.47
2023-02-27T14:41:29.584Z,98145.16
2023-02-27T14:43:58.197Z,98154.34
2023-02-27T14:46:39.486Z,98167.63
2023-02-27T14:49:29.374Z,98179.97
2023-02-27T14:51:57.324Z,98178.47
2023-02-27T14:54:26.668Z,98170.78
2023-02-27T14:57:02.048Z,98168.97
2023-02-27T14:59:41.292Z,98171.75
2023-02-27T15:02:26.300Z,98184.72
2023-02-27T15:05:16.010Z,98171.00
2023-02-27T15:07:47.534Z,98162.47
2023-02-27T15:10:31.197Z,98175.53
2023-02-27T15:13:00.113Z,98197.44
2023-02-27T15:15:27.407Z,98204.75
2023-02-27T15:17:56.229Z,98211.03
2023-02-27T15:20:30.072Z,98213.38
2023-02-27T15:22:58.024Z,98195.25
2023-02-27T15:25:37.472Z,98194.69
2023-02-27T15:28:14.179Z,98193.16
2023-02-27T15:30:41.935Z,98202.09
2023-02-27T15:33:16.645Z,98200.97
2023-02-27T15:35:46.020Z,98205.47
2023-02-27T15:38:29.274Z,98233.03
2023-02-27T15:40:58.124Z,98239.09
2023-02-27T15:43:26.992Z,98253.06
2023-02-27T15:45:54.781Z,98264.75
2023-02-27T15:48:22.174Z,98273.41
2023-02-27T15:50:54.871Z,98280.63
2023-02-27T15:53:24.729Z,98273.97
2023-02-27T15:55:57.638Z,98287.97
2023-02-27T15:58:30.727Z,98274.56
2023-02-27T16:01:00.881Z,98263.13
2023-02-27T16:03:33.173Z,98276.03
2023-02-27T16:06:01.209Z,98269.84
2023-02-27T16:08:31.558Z,98268.84
2023-02-27T16:10:58.513Z,98270.91
2023-02-27T16:13:25.392Z,98264.53
2023-02-27T16:16:18.790Z,98284.13
2023-02-27T16:19:00.346Z,98292.31
2023-02-27T16:21:31.303Z,98302.66
2023-02-27T16:24:21.681Z,98306.75
2023-02-27T16:26:53.208Z,98326.91
2023-02-27T16:29:23.103Z,98313.50
2023-02-27T16:31:55.192Z,98330.97
2023-02-27T16:34:45.536Z,98344.16
2023-02-27T16:37:32.528Z,98341.78
2023-02-27T16:39:59.435Z,98342.88
2023-02-27T16:42:26.455Z,98343.47
2023-02-27T16:44:53.399Z,98342.66
2023-02-27T16:47:20.412Z,98353.59
2023-02-27T16:49:47.609Z,98365.25
2023-02-27T16:52:14.532Z,98351.22
2023-02-27T16:54:41.416Z,98350.50
2023-02-27T16:57:10.084Z,98360.25
2023-02-27T16:59:42.040Z,98353.94
2023-02-27T17:02:14.777Z,98367.16
2023-02-27T17:04:48.056Z,98367.16
2023-02-27T17:07:17.236Z,98365.94
2023-02-27T17:09:45.829Z,98365.38
2023-02-27T17:12:13.002Z,98364.75
2023-02-27T17:14:39.909Z,98366.63
2023-02-27T17:17:07.081Z,98367.09
2023-02-27T17:19:34.566Z,98372.06
2023-02-27T17:22:01.639Z,98380.13
2023-02-27T17:24:28.625Z,98405.66
2023-02-27T17:26:56.056Z,98411.66
2023-02-27T17:29:24.170Z,98400.19
2023-02-27T17:31:51.628Z,98388.31
2023-02-27T17:34:18.663Z,98379.66
2023-02-27T17:36:45.684Z,98383.72
2023-02-27T17:39:14.343Z,98386.06
2023-02-27T17:41:43.250Z,98385.50
2023-02-27T17:44:13.601Z,98387.19
2023-02-27T17:46:41.412Z,98401.38
2023-02-27T17:49:09.689Z,98414.31
2023-02-27T17:51:36.666Z,98417.03
2023-02-27T17:54:05.898Z,98409.94
2023-02-27T17:56:35.006Z,98408.09
2023-02-27T17:59:03.449Z,98420.41
2023-02-27T18:01:30.521Z,98414.16
2023-02-27T18:03:57.733Z,98427.75
2023-02-27T18:06:25.953Z,98443.19
2023-02-27T18:08:53.143Z,98439.44
2023-02-27T18:11:22.142Z,98453.84
2023-02-27T18:13:50.576Z,98451.84
2023-02-27T18:16:17.712Z,98436.31
2023-02-27T18:18:45.844Z,98421.50
2023-02-27T18:21:22.931Z,98438.41
2023-02-27T18:23:51.543Z,98457.91
2023-02-27T18:26:30.429Z,98457.38
2023-02-27T18:29:00.568Z,98444.22
2023-02-27T18:31:42.900Z,98439.22
2023-02-27T18:34:10.719Z,98433.19
2023-02-27T18:36:38.359Z,98452.25
2023-02-27T18:39:06.967Z,98446.16
2023-02-27T18:41:34.770Z,98439.16
2023-02-27T18:44:01.734Z,98443.78
2023-02-27T18:46:29.326Z,98428.16
2023-02-27T18:48:57.221Z,98426.38
2023-02-27T18:51:24.879Z,98430.94
2023-02-27T18:53:52.186Z,98439.47
2023-02-27T18:56:22.996Z,98448.31
2023-02-27T18:58:50.667Z,98469.69
2023-02-27T19:01:27.494Z,98478.13
2023-02-27T19:04:00.415Z,98476.75
2023-02-27T19:06:28.213Z,98485.34
2023-02-27T19:08:55.768Z,98487.41
2023-02-27T19:11:29.753Z,98499.03
2023-02-27T19:13:58.096Z,98498.22
2023-02-27T19:16:25.689Z,98499.16
2023-02-27T19:18:56.062Z,98494.66
2023-02-27T19:21:24.523Z,98502.78
2023-02-27T19:23:51.525Z,98492.63
2023-02-27T19:26:18.802Z,98516.41
2023-02-27T19:28:46.280Z,98523.28
2023-02-27T19:31:15.297Z,98518.91
2023-02-27T19:33:42.233Z,98541.13
2023-02-27T19:36:14.856Z,98536.41
2023-02-27T19:38:42.601Z,98528.78
2023-02-27T19:41:11.961Z,98541.16
2023-02-27T19:43:40.075Z,98546.38
2023-02-27T19:46:09.850Z,98521.91
2023-02-27T19:48:37.639Z,98510.38
2023-02-27T19:51:06.407Z,98518.97
2023-02-27T19:53:36.034Z,98501.56
2023-02-27T19:56:06.685Z,98521.00
2023-02-27T19:58:36.028Z,98531.97
2023-02-27T20:01:04.092Z,98536.13
2023-02-27T20:03:31.506Z,98540.63
2023-02-27T20:05:58.581Z,98519.50
2023-02-27T20:08:25.546Z,98507.78
2023-02-27T20:10:58.946Z,98514.22
2023-02-27T20:13:26.083Z,98519.72
2023-02-27T20:16:01.388Z,98520.72
2023-02-27T20:18:30.007Z,98529.00
2023-02-27T20:21:00.871Z,98522.88
2023-02-27T20:23:28.094Z,98517.84
2023-02-27T20:25:55.289Z,98530.13
2023-02-27T20:28:22.880Z,98542.38
2023-02-27T20:30:49.927Z,98541.16
2023-02-27T20:33:16.845Z,98556.91
2023-02-27T20:35:43.827Z,98569.34
2023-02-27T20:38:12.426Z,98572.22
2023-02-27T20:40:39.495Z,98569.88
2023-02-27T20:43:06.362Z,98558.97
2023-02-27T20:45:38.672Z,98549.06
2023-02-27T20:48:06.608Z,98545.09
2023-02-27T20:50:34.503Z,98553.25
2023-02-27T20:53:01.461Z,98545.19
2023-02-27T20:55:28.579Z,98553.38
2023-02-27T20:57:55.514Z,98561.34
2023-02-27T21:00:22.713Z,98561.19
2023-02-27T21:02:49.571Z,98568.78
2023-02-27T21:05:16.663Z,98564.34
2023-02-27T21:07:44.912Z,98568.06
2023-02-27T21:10:13.359Z,98580.59
2023-02-27T21:12:40.462Z,98582.91
2023-02-27T21:15:07.808Z,98576.78
2023-02-27T21:17:34.726Z,98576.41
2023-02-27T21:20:06.744Z,98597.44
2023-02-27T21:22:35.438Z,98599.63
2023-02-27T21:25:02.518Z,98604.38
2023-02-27T21:27:29.458Z,98603.38
2023-02-27T21:29:56.414Z,98614.63
2023-02-27T21:32:23.336Z,98623.25
2023-02-27T21:34:50.679Z,98623.53
2023-02-27T21:37:17.656Z,98619.16
2023-02-27T21:39:47.238Z,98630.88
2023-02-27T21:42:14.088Z,98625.75
2023-02-27T21:44:41.011Z,98610.88
2023-02-27T21:47:09.959Z,98611.25
2023-02-27T21:49:37.337Z,98614.22
2023-02-27T21:52:04.401Z,98609.97
2023-02-27T21:54:31.395Z,98629.91
2023-02-27T21:57:01.904Z,98654.50
2023-02-27T21:59:29.487Z,98629.84
2023-02-27T22:01:57.366Z,98616.63
2023-02-27T22:04:25.142Z,98619.50
2023-02-27T22:06:52.675Z,98625.19
2023-02-27T22:09:20.501Z,98632.50
2023-02-27T22:11:48.358Z,98630.00
2023-02-27T22:14:15.862Z,98635.97
2023-02-27T22:16:43.316Z,98651.13
2023-02-27T22:19:20.094Z,98661.13
2023-02-27T22:21:47.329Z,98651.56
2023-02-27T22:24:14.696Z,98647.63
2023-02-27T22:26:42.707Z,98660.63
2023-02-27T22:29:09.597Z,98670.41
2023-02-27T22:31:38.072Z,98671.81
2023-02-27T22:34:12.270Z,98654.91
2023-02-27T22:36:41.315Z,98663.81
2023-02-27T22:39:08.655Z,98680.88
2023-02-27T22:41:38.513Z,98662.88
2023-02-27T22:44:06.482Z,98671.31
2023-02-27T22:46:35.664Z,98683.66
2023-02-27T22:49:06.581Z,98669.06
2023-02-27T22:51:33.848Z,98684.41
2023-02-27T22:54:03.186Z,98679.22
2023-02-27T22:56:30.783Z,98685.94
2023-02-27T22:58:58.025Z,98673.19
2023-02-27T23:01:28.564Z,98665.88
2023-02-27T23:03:58.268Z,98683.19
2023-02-27T23:06:28.248Z,98692.53
2023-02-27T23:08:55.310Z,98673.56
2023-02-27T23:11:22.199Z,98671.16
2023-02-27T23:13:49.271Z,98677.81
2023-02-27T23:16:17.262Z,98682.88
2023-02-27T23:18:47.182Z,98675.81
2023-02-27T23:21:16.521Z,98693.00
2023-02-27T23:23:43.753Z,98693.38
2023-02-27T23:26:11.291Z,98692.94
2023-02-27T23:28:39.062Z,98692.00
2023-02-27T23:31:07.785Z,98698.72
2023-02-27T23:33:35.325Z,98681.25
2023-02-27T23:36:02.666Z,98700.03
2023-02-27T23:38:29.638Z,98700.22
2023-02-27T23:40:56.630Z,98688.41
2023-02-27T23:43:24.013Z,98732.94
2023-02-27T23:45:50.951Z,98751.41
2023-02-27T23:48:17.919Z,98754.00
2023-02-27T23:50:45.167Z,98757.69
2023-02-27T23:53:13.663Z,98738.16
2023-02-27T23:55:41.397Z,98743.84
2023-02-27T23:58:10.157Z,98770.84
